Terminal Aerodrome Forecast
Issued by NWS Cleveland, OH

Home | Current Version | Previous Version | Graphics & Text | Print | Product List | Glossary On
Versions: 1 2 3 4 5 6 7 8 9 10 11 12 13 14 15
000
FTUS41 KCLE 291700
TAFMFD
TAF
KMFD 291722Z 2918/3018 27005KT P6SM BKN040
     FM300000 25008KT P6SM VCSH BKN040
     FM300200 23004KT P6SM SCT050 BKN080
     FM301700 29008KT P6SM VCSH BKN035 OVC100=

USA.gov is the U.S. government's official web portal to all federal, state and local government web resources and services.